Time;durP1;ratioP1;P1;durP2;ratioP2;P2;SDS_P1;SDS_P2;PMS_P1;PMS_P2;Temp;Humidity;BMP_temperature;BMP_pressure;BME280_temperature;BME280_humidity;BME280_pressure;Samples;Min_cycle;Max_cycle;Signal;HPM_P1;HPM_P2
2023/04/09 00:01:55;;;;;;;25.42;19.15;;;10.20;99.90;;;;;;5013323;28;20174;-77
2023/04/09 00:04:22;;;;;;;21.87;19.37;;;10.20;99.90;;;;;;5011484;28;20233;-78
2023/04/09 00:06:48;;;;;;;23.23;19.15;;;10.20;99.90;;;;;;5013697;28;20506;-77
2023/04/09 00:09:14;;;;;;;23.90;20.25;;;10.20;99.90;;;;;;5011705;28;20194;-77
2023/04/09 00:11:40;;;;;;;22.80;20.30;;;10.10;99.90;;;;;;5012930;28;20619;-77
2023/04/09 00:14:06;;;;;;;26.75;22.42;;;10.10;99.90;;;;;;5012706;28;20265;-77
2023/04/09 00:16:32;;;;;;;21.60;19.30;;;10.00;99.90;;;;;;5013490;28;20175;-77
2023/04/09 00:18:57;;;;;;;23.10;20.63;;;10.00;99.90;;;;;;5012788;28;20589;-77
2023/04/09 00:21:23;;;;;;;24.03;20.80;;;10.00;99.90;;;;;;5012262;28;20488;-78
2023/04/09 00:23:49;;;;;;;22.10;19.60;;;9.90;99.90;;;;;;5011630;28;20218;-77
2023/04/09 00:26:15;;;;;;;25.70;20.20;;;9.90;99.90;;;;;;4994977;28;20272;-77
2023/04/09 00:28:40;;;;;;;21.45;18.63;;;9.90;99.90;;;;;;5011794;28;20245;-78
2023/04/09 00:31:06;;;;;;;26.10;19.23;;;9.90;99.90;;;;;;5010870;28;20182;-77
2023/04/09 00:33:32;;;;;;;21.80;19.50;;;9.80;99.90;;;;;;5012815;28;20179;-77
2023/04/09 00:35:57;;;;;;;21.03;18.83;;;9.80;99.90;;;;;;5012516;28;20214;-77
2023/04/09 00:38:23;;;;;;;29.07;21.50;;;9.80;99.90;;;;;;5011630;28;20180;-77
2023/04/09 00:40:50;;;;;;;24.20;21.33;;;9.70;99.90;;;;;;4994638;28;20638;-77
2023/04/09 00:43:18;;;;;;;19.85;16.45;;;9.70;99.90;;;;;;5012462;28;20177;-77
2023/04/09 00:45:44;;;;;;;21.67;19.38;;;9.70;99.90;;;;;;5012516;28;20649;-77
2023/04/09 00:48:12;;;;;;;20.60;18.37;;;9.70;99.90;;;;;;5011106;28;20194;-77
2023/04/09 00:50:37;;;;;;;20.42;18.20;;;9.70;99.90;;;;;;5010868;28;20601;-77
2023/04/09 00:53:04;;;;;;;22.40;18.20;;;9.70;99.90;;;;;;5014808;28;20205;-77
2023/04/09 00:55:31;;;;;;;18.73;16.88;;;9.70;99.90;;;;;;5032137;28;20220;-77
2023/04/09 00:57:57;;;;;;;19.15;17.25;;;9.80;99.90;;;;;;5013990;28;20531;-77
2023/04/09 01:00:23;;;;;;;19.87;16.03;;;9.80;99.90;;;;;;5030788;28;20174;-77
2023/04/09 01:02:51;;;;;;;18.53;15.87;;;9.80;99.90;;;;;;5013798;28;20677;-77
2023/04/09 01:05:33;;;;;;;19.25;16.85;;;9.80;99.90;;;;;;5010913;28;21082;-77
2023/04/09 01:08:30;;;;;;;19.23;17.33;;;9.80;99.90;;;;;;5010725;28;20276;-77
2023/04/09 01:11:24;;;;;;;19.50;16.17;;;9.80;99.90;;;;;;5005071;28;20175;-77
2023/04/09 01:14:13;;;;;;;16.10;14.23;;;9.80;99.90;;;;;;5008062;28;20186;-77
2023/04/09 01:16:43;;;;;;;19.15;15.35;;;9.80;99.90;;;;;;4994756;28;20210;-77
2023/04/09 01:19:37;;;;;;;17.88;15.85;;;9.80;99.90;;;;;;4994006;28;20285;-77
2023/04/09 01:22:09;;;;;;;16.77;15.00;;;9.80;99.90;;;;;;4993834;28;20186;-78
2023/04/09 01:24:46;;;;;;;16.25;14.60;;;9.80;99.90;;;;;;5010369;28;20257;-77
2023/04/09 01:27:17;;;;;;;19.67;14.48;;;9.80;99.90;;;;;;4994520;28;20178;-77
2023/04/09 01:29:53;;;;;;;18.73;16.20;;;9.70;99.90;;;;;;4994022;28;20210;-77
2023/04/09 01:32:20;;;;;;;16.50;14.73;;;9.70;99.90;;;;;;4994205;28;20265;-77
2023/04/09 01:34:47;;;;;;;16.08;13.77;;;9.70;99.90;;;;;;5010605;28;20202;-78
2023/04/09 01:37:14;;;;;;;17.40;13.85;;;9.70;99.90;;;;;;5011936;28;20308;-77
2023/04/09 01:39:40;;;;;;;17.13;14.38;;;9.70;99.90;;;;;;4994221;28;20200;-77
2023/04/09 01:42:09;;;;;;;17.60;14.00;;;9.70;99.90;;;;;;5026748;28;20273;-77
2023/04/09 01:44:38;;;;;;;18.92;13.85;;;9.70;99.90;;;;;;5012395;28;20206;-78
2023/04/09 01:47:05;;;;;;;15.57;13.15;;;9.70;99.90;;;;;;5009970;28;20170;-77
2023/04/09 01:49:32;;;;;;;19.20;17.17;;;9.60;99.90;;;;;;5010496;28;20697;-77
2023/04/09 01:51:59;;;;;;;18.40;16.48;;;9.60;99.90;;;;;;4993330;28;20185;-78
2023/04/09 01:54:24;;;;;;;14.75;13.20;;;9.60;99.90;;;;;;5010163;28;20677;-78
2023/04/09 01:56:50;;;;;;;15.40;13.80;;;9.60;99.90;;;;;;5011189;28;20194;-78
2023/04/09 01:59:16;;;;;;;16.57;13.03;;;9.60;99.90;;;;;;5010247;28;20174;-77
2023/04/09 02:01:45;;;;;;;16.37;12.47;;;9.70;99.90;;;;;;5009616;28;20602;-77
2023/04/09 02:04:31;;;;;;;16.45;14.70;;;9.70;99.90;;;;;;5009782;28;20213;-78
2023/04/09 02:07:05;;;;;;;16.35;14.65;;;9.70;99.90;;;;;;5011050;28;20653;-77
2023/04/09 02:09:32;;;;;;;16.05;13.88;;;9.70;99.90;;;;;;4993471;28;20660;-78
2023/04/09 02:12:02;;;;;;;15.25;12.90;;;9.80;99.90;;;;;;5025634;28;20186;-78
2023/04/09 02:14:31;;;;;;;14.65;13.02;;;9.80;99.90;;;;;;5010082;28;20199;-78
2023/04/09 02:16:58;;;;;;;15.98;14.18;;;9.80;99.90;;;;;;5011188;28;20763;-78
2023/04/09 02:19:23;;;;;;;16.70;13.75;;;9.80;99.90;;;;;;5009755;28;20269;-77
2023/04/09 02:21:49;;;;;;;15.87;13.67;;;9.90;99.90;;;;;;4987936;28;20281;-77
2023/04/09 02:24:15;;;;;;;16.00;13.57;;;9.80;99.90;;;;;;5014661;28;20845;-77
2023/04/09 02:26:40;;;;;;;15.93;14.27;;;9.80;99.90;;;;;;5010166;28;20596;-78
2023/04/09 02:29:06;;;;;;;16.60;12.90;;;9.90;99.90;;;;;;5009441;28;20260;-77
2023/04/09 02:31:32;;;;;;;13.23;11.83;;;9.80;99.90;;;;;;4992912;28;20264;-78
2023/04/09 02:33:58;;;;;;;15.10;12.77;;;9.80;99.90;;;;;;5009479;28;20195;-77
2023/04/09 02:36:23;;;;;;;13.77;12.37;;;9.80;99.90;;;;;;5009864;28;20194;-77
2023/04/09 02:38:49;;;;;;;14.00;12.60;;;9.80;99.90;;;;;;5009310;28;20613;-77
2023/04/09 02:41:15;;;;;;;13.63;12.13;;;9.90;99.90;;;;;;4993019;28;20183;-77
2023/04/09 02:43:41;;;;;;;16.97;13.57;;;9.90;99.90;;;;;;5009503;28;20260;-77
2023/04/09 02:46:07;;;;;;;16.77;13.67;;;9.90;99.90;;;;;;5009423;28;20202;-77
2023/04/09 02:48:34;;;;;;;16.02;14.35;;;9.90;99.90;;;;;;4993186;28;20574;-77
2023/04/09 02:50:59;;;;;;;14.80;12.70;;;9.80;99.90;;;;;;4992727;28;20638;-77
2023/04/09 02:53:25;;;;;;;15.43;13.27;;;9.80;99.90;;;;;;5009428;28;20185;-77
2023/04/09 02:55:51;;;;;;;15.27;13.63;;;9.80;99.90;;;;;;4976849;28;20588;-76
2023/04/09 02:58:17;;;;;;;15.57;13.97;;;9.80;99.90;;;;;;5010798;28;20182;-77
2023/04/09 03:00:43;;;;;;;14.37;12.63;;;9.80;99.90;;;;;;4992799;28;20179;-77
2023/04/09 03:03:09;;;;;;;16.50;13.97;;;9.80;99.90;;;;;;5009295;28;20181;-76
2023/04/09 03:05:35;;;;;;;16.53;14.73;;;9.80;99.90;;;;;;5009005;28;20225;-76
2023/04/09 03:08:01;;;;;;;16.92;13.02;;;9.80;99.90;;;;;;5009737;28;20171;-77
2023/04/09 03:10:27;;;;;;;13.90;12.48;;;9.80;99.90;;;;;;5010339;28;20166;-77
2023/04/09 03:12:53;;;;;;;14.43;12.93;;;9.70;99.90;;;;;;5008961;28;20504;-77
2023/04/09 03:15:19;;;;;;;16.47;13.30;;;9.70;99.90;;;;;;5010825;28;20273;-77
2023/04/09 03:17:44;;;;;;;14.20;11.87;;;9.70;99.90;;;;;;5016758;28;20185;-77
2023/04/09 03:20:10;;;;;;;14.60;13.00;;;9.60;99.90;;;;;;5014963;28;20171;-77
2023/04/09 03:22:38;;;;;;;16.52;12.93;;;9.60;99.90;;;;;;4990125;28;20337;-77
2023/04/09 03:25:13;;;;;;;13.95;12.15;;;9.60;99.90;;;;;;5009261;28;20690;-77
2023/04/09 03:27:39;;;;;;;14.30;11.90;;;9.50;99.90;;;;;;4992587;28;20181;-77
2023/04/09 03:30:06;;;;;;;13.27;11.85;;;9.50;99.90;;;;;;5009721;28;20616;-77
2023/04/09 03:32:39;;;;;;;13.93;11.20;;;9.40;99.90;;;;;;4992257;28;20208;-76
2023/04/09 03:35:05;;;;;;;14.20;11.80;;;9.40;99.90;;;;;;4979985;28;20194;-76
2023/04/09 03:37:31;;;;;;;14.13;12.73;;;9.30;99.90;;;;;;5012844;28;20178;-77
2023/04/09 03:39:57;;;;;;;12.30;10.77;;;9.30;99.90;;;;;;4996603;28;20176;-77
2023/04/09 03:42:27;;;;;;;13.75;11.82;;;9.30;99.90;;;;;;5016707;28;20261;-77
2023/04/09 03:44:54;;;;;;;13.70;11.85;;;9.20;99.90;;;;;;5016224;28;20206;-77
2023/04/09 03:47:35;;;;;;;12.77;10.40;;;9.20;99.90;;;;;;5014130;28;20230;-77
2023/04/09 03:50:01;;;;;;;14.50;10.90;;;9.20;99.90;;;;;;4997525;28;20198;-77
2023/04/09 03:52:38;;;;;;;13.23;11.40;;;9.10;99.90;;;;;;4997811;28;20593;-79
2023/04/09 03:55:08;;;;;;;13.63;11.55;;;9.00;99.90;;;;;;5013534;28;20218;-77
2023/04/09 03:57:34;;;;;;;13.73;10.90;;;9.00;99.90;;;;;;5014455;28;20189;-77
2023/04/09 04:00:00;;;;;;;13.07;11.68;;;9.00;99.90;;;;;;5014066;28;20174;-77
2023/04/09 04:02:35;;;;;;;15.80;12.30;;;8.90;99.90;;;;;;5012366;28;20189;-77
2023/04/09 04:05:06;;;;;;;15.82;13.02;;;8.90;99.90;;;;;;5011880;28;20580;-76
2023/04/09 04:07:42;;;;;;;14.13;11.13;;;8.80;99.90;;;;;;4996094;28;20178;-77
2023/04/09 04:10:12;;;;;;;12.95;10.73;;;8.80;99.90;;;;;;5014179;28;20242;-77
2023/04/09 04:12:43;;;;;;;14.05;12.05;;;8.80;99.90;;;;;;5017036;28;20655;-77
2023/04/09 04:15:13;;;;;;;15.45;12.02;;;8.80;99.90;;;;;;5007219;28;20335;-77
2023/04/09 04:17:46;;;;;;;13.88;10.48;;;8.80;99.90;;;;;;5015776;28;20537;-77
2023/04/09 04:20:33;;;;;;;11.73;10.50;;;8.80;99.90;;;;;;5023660;28;20208;-77
2023/04/09 04:23:04;;;;;;;12.65;10.73;;;8.70;99.90;;;;;;4995792;28;20182;-76
2023/04/09 04:25:31;;;;;;;13.75;10.77;;;8.70;99.90;;;;;;5011491;28;20308;-77
2023/04/09 04:27:57;;;;;;;12.60;10.53;;;8.70;99.90;;;;;;5013400;28;20741;-77
2023/04/09 04:30:30;;;;;;;11.65;9.90;;;8.70;99.90;;;;;;4995492;28;20180;-77
2023/04/09 04:33:02;;;;;;;11.98;10.60;;;8.70;99.90;;;;;;4994623;28;20170;-76
2023/04/09 04:35:36;;;;;;;14.43;11.80;;;8.70;99.90;;;;;;5011671;28;20206;-77
2023/04/09 04:38:04;;;;;;;12.38;10.57;;;8.70;99.90;;;;;;5011385;28;20214;-77
2023/04/09 04:40:34;;;;;;;12.00;10.20;;;8.70;99.90;;;;;;4995308;28;20174;-78
2023/04/09 04:43:00;;;;;;;14.18;12.63;;;8.70;99.90;;;;;;4994609;28;20182;-77
2023/04/09 04:45:27;;;;;;;14.02;11.88;;;8.60;99.90;;;;;;4994556;28;20213;-77
2023/04/09 04:47:59;;;;;;;12.38;11.15;;;8.60;99.90;;;;;;5011405;28;20638;-77
2023/04/09 04:50:24;;;;;;;13.37;10.50;;;8.60;99.90;;;;;;5012822;28;20225;-77
2023/04/09 04:53:03;;;;;;;13.70;11.82;;;8.60;99.90;;;;;;5010835;28;20224;-78
2023/04/09 04:55:36;;;;;;;12.52;9.80;;;8.60;99.90;;;;;;5011317;28;20318;-77
2023/04/09 04:58:02;;;;;;;13.23;10.25;;;8.60;99.90;;;;;;4994215;28;20189;-77
2023/04/09 05:00:37;;;;;;;11.90;10.07;;;8.60;99.90;;;;;;4995023;28;20184;-77
2023/04/09 05:03:02;;;;;;;12.10;10.33;;;8.50;99.90;;;;;;4994017;28;20200;-77
2023/04/09 05:05:44;;;;;;;15.52;12.70;;;8.50;99.90;;;;;;5010923;28;20213;-78
2023/04/09 05:08:11;;;;;;;13.60;11.05;;;8.50;99.90;;;;;;4994473;28;20170;-77
2023/04/09 05:10:40;;;;;;;11.27;9.95;;;8.50;99.90;;;;;;5019434;28;20182;-77
2023/04/09 05:13:06;;;;;;;13.13;11.23;;;8.50;99.90;;;;;;5013880;28;20633;-77
2023/04/09 05:15:39;;;;;;;14.60;12.18;;;8.50;99.90;;;;;;5030087;28;20194;-77
2023/04/09 05:18:06;;;;;;;13.55;11.00;;;8.60;99.90;;;;;;5014315;28;20192;-78
2023/04/09 05:20:33;;;;;;;16.75;13.07;;;8.60;99.90;;;;;;5022594;28;20213;-76
2023/04/09 05:23:05;;;;;;;14.95;12.90;;;8.70;99.90;;;;;;4994120;28;20550;-78
2023/04/09 05:25:36;;;;;;;13.75;12.10;;;8.70;99.90;;;;;;4993963;28;20701;-78
2023/04/09 05:28:03;;;;;;;14.77;11.30;;;8.80;99.90;;;;;;4994409;28;20308;-77
2023/04/09 05:30:30;;;;;;;13.07;10.88;;;8.90;99.90;;;;;;4993897;28;20268;-78
2023/04/09 05:32:59;;;;;;;13.93;10.65;;;8.90;99.90;;;;;;5010460;28;20480;-78
2023/04/09 05:35:26;;;;;;;14.13;10.43;;;9.00;99.90;;;;;;4993433;28;20195;-78
2023/04/09 05:37:52;;;;;;;14.23;10.53;;;9.10;99.90;;;;;;4994272;28;20507;-77
2023/04/09 05:40:18;;;;;;;15.87;12.80;;;9.20;99.90;;;;;;5010801;28;20260;-78
2023/04/09 05:42:45;;;;;;;13.07;10.77;;;9.30;99.90;;;;;;5009997;28;20178;-77
2023/04/09 05:45:33;;;;;;;13.43;11.30;;;9.40;99.90;;;;;;5010155;28;20222;-78
2023/04/09 05:47:59;;;;;;;12.52;9.85;;;9.50;99.90;;;;;;4993434;28;20178;-78
2023/04/09 05:50:25;;;;;;;12.20;10.87;;;9.60;99.90;;;;;;5010275;28;20639;-78
2023/04/09 05:52:53;;;;;;;13.40;10.15;;;9.60;99.90;;;;;;5009553;28;20589;-78
2023/04/09 05:55:20;;;;;;;12.43;10.23;;;9.70;99.90;;;;;;5010312;28;20209;-77
2023/04/09 05:57:54;;;;;;;12.75;11.32;;;9.70;99.90;;;;;;5009227;28;20228;-77
2023/04/09 06:00:20;;;;;;;14.90;10.57;;;9.80;99.90;;;;;;5010393;28;20621;-77
2023/04/09 06:02:47;;;;;;;12.20;10.30;;;9.80;99.90;;;;;;5009617;28;20177;-77
2023/04/09 06:05:13;;;;;;;12.03;9.80;;;9.80;99.90;;;;;;5011449;28;20217;-77
2023/04/09 06:07:39;;;;;;;13.43;11.10;;;9.90;99.90;;;;;;5020515;28;20170;-77
2023/04/09 06:10:06;;;;;;;12.35;9.57;;;9.90;99.90;;;;;;5030092;28;20236;-77
2023/04/09 06:12:34;;;;;;;16.20;11.23;;;10.00;99.90;;;;;;5029477;28;20173;-78
2023/04/09 06:14:59;;;;;;;11.30;9.18;;;10.10;99.90;;;;;;5029794;28;20195;-77
2023/04/09 06:17:27;;;;;;;11.38;9.20;;;10.20;99.90;;;;;;5013470;28;20177;-77
2023/04/09 06:19:53;;;;;;;11.63;9.60;;;10.20;99.90;;;;;;5028509;28;20199;-78
2023/04/09 06:22:18;;;;;;;12.33;10.10;;;10.40;99.90;;;;;;5009751;28;20182;-77
2023/04/09 06:24:44;;;;;;;9.07;7.93;;;10.40;99.90;;;;;;5010574;28;20209;-77
2023/04/09 06:27:10;;;;;;;13.10;9.37;;;10.50;99.90;;;;;;5010302;28;20593;-77
2023/04/09 06:29:35;;;;;;;10.70;9.10;;;10.50;99.90;;;;;;5009793;28;20651;-77
2023/04/09 06:32:01;;;;;;;11.60;8.53;;;10.60;99.90;;;;;;5010952;28;20963;-78
2023/04/09 06:34:27;;;;;;;10.50;9.40;;;10.70;99.90;;;;;;5018626;28;20198;-77
2023/04/09 06:36:53;;;;;;;10.50;8.90;;;10.70;99.90;;;;;;5022823;28;20581;-78
2023/04/09 06:39:19;;;;;;;11.80;9.97;;;10.80;99.90;;;;;;5030799;28;20205;-78
2023/04/09 06:41:45;;;;;;;12.20;9.93;;;10.90;99.90;;;;;;5030446;28;20174;-78
2023/04/09 06:44:23;;;;;;;11.70;9.75;;;11.10;99.90;;;;;;5029483;28;20189;-78
2023/04/09 06:46:49;;;;;;;12.63;9.30;;;11.60;99.90;;;;;;5029562;28;20181;-78
2023/04/09 06:49:15;;;;;;;9.35;8.07;;;12.30;99.90;;;;;;5030083;28;20212;-79
2023/04/09 06:51:41;;;;;;;10.33;8.53;;;13.10;99.90;;;;;;5030161;28;20267;-76
2023/04/09 06:54:06;;;;;;;10.97;9.20;;;13.90;99.90;;;;;;5030824;28;20189;-77
2023/04/09 06:56:33;;;;;;;9.60;7.80;;;14.70;99.90;;;;;;5029619;28;20170;-80
2023/04/09 06:58:59;;;;;;;11.10;9.80;;;15.40;99.90;;;;;;5031306;28;20564;-80
2023/04/09 07:01:25;;;;;;;9.07;8.07;;;15.90;99.90;;;;;;5024624;28;20696;-80
2023/04/09 07:03:51;;;;;;;10.23;8.90;;;16.40;99.90;;;;;;5022079;28;20230;-80
2023/04/09 07:06:17;;;;;;;8.93;8.07;;;17.00;99.90;;;;;;5029381;28;20642;-79
2023/04/09 07:08:43;;;;;;;9.50;7.93;;;17.70;99.90;;;;;;5031294;28;20687;-80
2023/04/09 07:11:08;;;;;;;7.70;7.00;;;18.10;99.90;;;;;;5033470;28;20260;-80
2023/04/09 07:13:34;;;;;;;9.77;8.43;;;18.50;99.90;;;;;;5030963;28;20176;-79
2023/04/09 07:16:00;;;;;;;8.10;7.30;;;19.00;99.90;;;;;;5016446;28;20214;-79
2023/04/09 07:18:26;;;;;;;7.80;7.10;;;19.50;99.90;;;;;;5013482;28;20577;-79
2023/04/09 07:20:52;;;;;;;7.70;6.90;;;20.00;99.90;;;;;;5014287;28;20643;-79
2023/04/09 07:23:18;;;;;;;8.00;7.23;;;20.70;99.90;;;;;;5014393;28;20228;-79
2023/04/09 07:25:44;;;;;;;7.80;7.10;;;21.10;99.90;;;;;;5021577;28;20263;-79
2023/04/09 07:28:10;;;;;;;8.50;7.70;;;21.60;99.90;;;;;;5028639;28;20584;-79
2023/04/09 07:30:36;;;;;;;8.40;7.57;;;22.00;99.90;;;;;;5022977;28;20280;-79
2023/04/09 07:33:02;;;;;;;8.03;7.03;;;22.20;99.90;;;;;;5015658;28;20668;-79
2023/04/09 07:35:28;;;;;;;6.83;6.13;;;22.40;99.90;;;;;;5014743;28;20684;-78
2023/04/09 07:37:53;;;;;;;6.77;6.07;;;22.40;99.90;;;;;;5029895;28;20785;-78
2023/04/09 07:40:19;;;;;;;7.60;6.80;;;22.80;99.90;;;;;;5012957;28;20336;-79
2023/04/09 07:42:45;;;;;;;7.53;6.80;;;23.00;99.90;;;;;;5014298;28;20178;-79
2023/04/09 07:45:11;;;;;;;6.83;6.23;;;23.30;99.90;;;;;;5014044;28;20205;-78
2023/04/09 07:47:39;;;;;;;7.77;6.60;;;23.40;99.90;;;;;;5014246;28;20699;-79
2023/04/09 07:50:06;;;;;;;7.47;6.77;;;23.50;96.50;;;;;;5013826;28;20601;-79
2023/04/09 07:52:31;;;;;;;7.53;5.90;;;23.40;97.50;;;;;;5012802;28;20590;-79
2023/04/09 07:54:57;;;;;;;6.03;5.43;;;23.60;94.80;;;;;;5012500;28;21168;-79
2023/04/09 07:57:23;;;;;;;6.20;5.60;;;23.70;95.10;;;;;;5012300;28;20186;-79
2023/04/09 07:59:49;;;;;;;6.13;5.53;;;23.70;94.30;;;;;;5021570;28;20170;-79
2023/04/09 08:02:14;;;;;;;6.47;5.77;;;23.50;93.60;;;;;;5033546;28;20224;-80
2023/04/09 08:04:40;;;;;;;6.33;5.60;;;23.70;92.20;;;;;;5033885;28;20255;-79
2023/04/09 08:07:06;;;;;;;6.07;5.27;;;23.70;93.30;;;;;;5031774;28;20990;-79
2023/04/09 08:09:32;;;;;;;5.33;4.67;;;23.90;94.00;;;;;;5032411;28;20212;-79
2023/04/09 08:11:58;;;;;;;5.83;5.23;;;24.50;95.30;;;;;;5031627;28;20612;-80
2023/04/09 08:14:23;;;;;;;5.43;4.60;;;25.20;95.80;;;;;;5032261;28;20201;-79
2023/04/09 08:16:49;;;;;;;7.87;5.87;;;25.90;95.60;;;;;;5032116;28;20196;-80
2023/04/09 08:19:16;;;;;;;5.40;4.90;;;26.40;95.00;;;;;;5033634;28;20596;-80
2023/04/09 08:21:42;;;;;;;5.57;5.07;;;27.00;94.60;;;;;;5013318;28;20693;-81
2023/04/09 08:24:11;;;;;;;4.40;4.00;;;27.50;92.70;;;;;;5012429;28;20684;-80
2023/04/09 08:26:38;;;;;;;4.60;4.03;;;27.50;90.50;;;;;;5012283;28;20998;-81
2023/04/09 08:29:04;;;;;;;5.80;5.20;;;27.20;84.80;;;;;;5013531;28;20639;-80
2023/04/09 08:31:30;;;;;;;4.57;4.07;;;27.30;85.80;;;;;;5012913;28;20609;-81
2023/04/09 08:33:57;;;;;;;4.67;4.23;;;27.70;86.00;;;;;;5012250;28;21250;-81
2023/04/09 08:36:22;;;;;;;4.40;3.90;;;28.10;86.10;;;;;;5013740;28;20568;-81
2023/04/09 08:38:48;;;;;;;6.00;5.47;;;28.50;86.40;;;;;;5013397;28;20197;-80
2023/04/09 08:41:19;;;;;;;6.10;5.50;;;29.00;80.40;;;;;;5011833;28;20546;-80
2023/04/09 08:43:47;;;;;;;5.10;4.33;;;29.20;74.50;;;;;;5012000;28;20657;-81
2023/04/09 08:46:16;;;;;;;4.50;4.10;;;29.10;75.70;;;;;;5013741;28;20618;-81
2023/04/09 08:48:46;;;;;;;5.40;4.30;;;29.30;75.40;;;;;;5013172;28;20984;-80
2023/04/09 08:51:13;;;;;;;3.60;3.30;;;29.50;69.90;;;;;;5012628;28;21035;-80
2023/04/09 08:53:46;;;;;;;4.27;3.87;;;29.40;72.00;;;;;;5028886;28;20966;-79
2023/04/09 08:56:15;;;;;;;5.10;4.60;;;29.80;72.30;;;;;;5013553;28;20946;-78
2023/04/09 08:58:45;;;;;;;5.00;3.97;;;29.90;65.50;;;;;;5020678;28;20616;-78
2023/04/09 09:01:31;;;;;;;3.80;3.40;;;29.50;59.10;;;;;;5010943;28;20578;-78
2023/04/09 09:04:00;;;;;;;3.47;2.90;;;29.30;59.90;;;;;;5011023;28;21214;-78
2023/04/09 09:06:31;;;;;;;3.57;3.27;;;29.30;62.00;;;;;;5012523;28;20625;-77
2023/04/09 09:09:11;;;;;;;3.33;3.00;;;29.40;60.20;;;;;;5012695;28;20916;-78
2023/04/09 09:11:38;;;;;;;6.00;4.30;;;29.10;50.60;;;;;;5011862;28;20572;-78
2023/04/09 09:14:06;;;;;;;3.30;3.00;;;28.50;52.70;;;;;;5010900;28;20628;-78
2023/04/09 09:16:43;;;;;;;3.50;3.20;;;28.40;55.80;;;;;;5010919;28;20581;-79
2023/04/09 09:19:29;;;;;;;3.90;3.27;;;28.50;54.50;;;;;;5012674;28;20899;-79
2023/04/09 09:22:00;;;;;;;4.07;3.73;;;28.50;56.00;;;;;;5011490;28;20601;-78
2023/04/09 09:24:27;;;;;;;4.73;3.50;;;28.50;54.00;;;;;;5012095;28;20668;-78
2023/04/09 09:26:53;;;;;;;3.47;3.17;;;28.30;52.90;;;;;;5023091;28;20580;-79
2023/04/09 09:29:20;;;;;;;5.40;2.80;;;28.00;52.70;;;;;;5019968;28;20650;-79
2023/04/09 09:31:48;;;;;;;3.33;3.03;;;28.10;53.90;;;;;;5022333;28;20882;-78
2023/04/09 09:34:16;;;;;;;2.63;2.23;;;28.30;53.50;;;;;;5027518;28;21273;-78
2023/04/09 09:36:42;;;;;;;3.30;3.00;;;28.50;53.80;;;;;;5022134;28;20652;-78
2023/04/09 09:39:11;;;;;;;4.20;3.30;;;28.80;53.00;;;;;;5035409;28;20624;-78
2023/04/09 09:41:41;;;;;;;3.57;3.27;;;28.90;52.90;;;;;;5018495;28;20590;-78
2023/04/09 09:44:08;;;;;;;3.70;3.20;;;28.70;50.30;;;;;;5020225;28;20696;-79
2023/04/09 09:46:38;;;;;;;2.93;2.63;;;28.50;51.10;;;;;;5022830;28;20727;-79
2023/04/09 09:49:05;;;;;;;3.90;3.60;;;28.30;50.40;;;;;;5014106;28;20594;-78
2023/04/09 09:51:32;;;;;;;3.93;3.33;;;28.10;48.80;;;;;;5021036;28;20619;-78
2023/04/09 09:53:58;;;;;;;3.20;2.73;;;27.80;48.30;;;;;;5001614;28;20978;-78
2023/04/09 09:56:31;;;;;;;4.00;3.53;;;27.70;49.50;;;;;;5036405;28;20576;-79
2023/04/09 09:59:22;;;;;;;4.30;3.90;;;27.50;45.60;;;;;;5033722;28;20664;-78
2023/04/09 10:01:54;;;;;;;6.53;4.17;;;26.70;47.30;;;;;;5032722;28;20637;-79
2023/04/09 10:04:21;;;;;;;3.10;2.80;;;26.20;44.80;;;;;;5034079;28;20603;-79
2023/04/09 10:06:48;;;;;;;4.20;3.80;;;26.20;49.20;;;;;;5023373;28;20672;-79
2023/04/09 10:09:14;;;;;;;4.53;3.50;;;26.20;49.00;;;;;;5013075;28;20606;-78
2023/04/09 10:11:46;;;;;;;5.20;4.17;;;26.30;47.90;;;;;;5014322;28;20619;-79
2023/04/09 10:14:12;;;;;;;4.10;3.70;;;26.20;46.70;;;;;;5012006;28;20614;-77
2023/04/09 10:16:39;;;;;;;4.50;4.00;;;26.10;47.00;;;;;;5009806;28;20609;-80
2023/04/09 10:19:11;;;;;;;4.90;4.20;;;25.90;45.40;;;;;;5012372;28;20631;-78
2023/04/09 10:21:46;;;;;;;4.60;4.07;;;25.30;45.10;;;;;;5009829;28;20619;-79
2023/04/09 10:24:14;;;;;;;4.43;4.03;;;25.00;46.50;;;;;;5010567;28;20636;-78
2023/04/09 10:26:41;;;;;;;5.23;4.63;;;24.70;46.20;;;;;;5011688;28;20775;-78
2023/04/09 10:29:08;;;;;;;4.33;3.93;;;24.60;47.20;;;;;;5034190;23;20605;-78
2023/04/09 10:31:44;;;;;;;4.30;3.90;;;24.60;48.20;;;;;;5004718;28;20712;-78
2023/04/09 10:34:10;;;;;;;4.97;4.10;;;24.50;47.20;;;;;;5003419;28;20682;-77
2023/04/09 10:36:36;;;;;;;4.43;3.43;;;24.70;49.50;;;;;;4993477;28;21381;-76
2023/04/09 10:39:12;;;;;;;4.40;3.70;;;25.10;50.80;;;;;;5008545;28;20175;-76
2023/04/09 10:41:40;;;;;;;4.60;3.50;;;25.50;49.90;;;;;;5001077;28;20174;-76
2023/04/09 10:44:06;;;;;;;5.47;4.93;;;25.70;49.50;;;;;;5012460;28;20683;-78
2023/04/09 10:46:35;;;;;;;5.00;4.50;;;25.50;48.80;;;;;;4984423;28;20637;-76
2023/04/09 10:49:14;;;;;;;4.10;3.23;;;25.40;48.30;;;;;;4995233;28;21064;-76
2023/04/09 10:51:40;;;;;;;6.20;4.50;;;25.00;47.70;;;;;;5014427;28;20569;-77
2023/04/09 10:54:31;;;;;;;5.13;4.63;;;24.30;44.70;;;;;;5012887;28;20669;-76
2023/04/09 10:57:06;;;;;;;5.60;5.00;;;23.10;42.30;;;;;;4980972;28;21082;-76
2023/04/09 10:59:32;;;;;;;4.23;3.80;;;22.40;43.90;;;;;;5013153;28;20695;-76
2023/04/09 11:01:59;;;;;;;6.13;5.53;;;21.90;46.10;;;;;;4996540;28;20577;-77
2023/04/09 11:04:35;;;;;;;5.10;4.60;;;21.60;46.60;;;;;;5009061;28;20585;-76
2023/04/09 11:07:04;;;;;;;5.67;5.17;;;21.30;47.60;;;;;;5014412;28;20181;-76
2023/04/09 11:09:34;;;;;;;5.23;4.70;;;21.40;49.00;;;;;;5014510;28;20721;-76
2023/04/09 11:12:00;;;;;;;4.83;4.03;;;21.50;49.70;;;;;;4980029;28;21125;-76
2023/04/09 11:14:26;;;;;;;5.67;4.80;;;21.50;49.50;;;;;;5014185;28;20572;-76
2023/04/09 11:16:52;;;;;;;4.87;4.07;;;21.50;48.70;;;;;;5004000;28;20598;-76
2023/04/09 11:19:19;;;;;;;4.27;3.87;;;21.50;49.20;;;;;;4993883;28;20191;-76
2023/04/09 11:21:47;;;;;;;6.20;4.97;;;21.40;49.20;;;;;;4976732;28;20187;-76
2023/04/09 11:24:13;;;;;;;5.97;5.17;;;21.30;48.90;;;;;;5009470;28;21030;-76
2023/04/09 11:26:39;;;;;;;5.20;4.67;;;21.30;49.20;;;;;;4993005;28;20641;-76
2023/04/09 11:29:08;;;;;;;5.23;4.47;;;21.10;48.80;;;;;;4976246;28;20625;-76
2023/04/09 11:31:34;;;;;;;5.83;5.23;;;20.90;48.50;;;;;;4992805;28;20651;-76
2023/04/09 11:34:01;;;;;;;5.27;4.27;;;20.80;48.80;;;;;;4994065;28;20566;-77
2023/04/09 11:36:27;;;;;;;5.73;4.80;;;20.80;49.70;;;;;;4977019;28;20582;-77
2023/04/09 11:38:54;;;;;;;4.97;4.20;;;20.50;48.60;;;;;;5009172;28;20580;-77
2023/04/09 11:41:34;;;;;;;4.80;4.17;;;20.50;49.70;;;;;;4992232;28;20566;-77
2023/04/09 11:44:05;;;;;;;5.83;5.17;;;20.50;50.20;;;;;;5000691;28;20617;-77
2023/04/09 11:46:34;;;;;;;6.40;5.80;;;20.50;49.70;;;;;;5009542;28;20667;-77
2023/04/09 11:49:01;;;;;;;6.73;5.60;;;20.00;48.00;;;;;;5029073;28;20635;-77
2023/04/09 11:51:27;;;;;;;5.17;4.37;;;19.70;48.50;;;;;;5011684;28;20573;-76
2023/04/09 11:53:53;;;;;;;5.83;4.60;;;19.50;49.30;;;;;;5012633;28;20671;-76
2023/04/09 11:56:19;;;;;;;7.40;6.23;;;19.60;50.20;;;;;;5013280;28;21071;-76
2023/04/09 11:58:46;;;;;;;5.70;5.10;;;19.60;50.40;;;;;;5013678;28;20257;-76
2023/04/09 12:01:13;;;;;;;5.20;4.30;;;19.60;50.20;;;;;;5011153;28;21200;-76
2023/04/09 12:03:38;;;;;;;6.10;4.47;;;19.60;50.30;;;;;;4995714;28;20643;-76
2023/04/09 12:06:05;;;;;;;5.57;4.30;;;19.60;49.60;;;;;;4998350;28;20629;-76
2023/04/09 12:08:34;;;;;;;5.23;4.70;;;19.50;49.50;;;;;;4992088;28;20182;-77
2023/04/09 12:11:19;;;;;;;4.97;4.17;;;19.40;50.10;;;;;;4992342;28;21029;-76
2023/04/09 12:13:45;;;;;;;5.70;5.00;;;19.40;50.80;;;;;;4992074;28;20566;-76
2023/04/09 12:16:12;;;;;;;4.67;4.00;;;19.40;50.60;;;;;;4978660;28;20648;-76
2023/04/09 12:18:38;;;;;;;5.50;4.70;;;19.30;50.60;;;;;;5011706;28;20589;-76
2023/04/09 12:21:05;;;;;;;4.07;3.57;;;19.30;51.30;;;;;;4983717;28;20680;-76
2023/04/09 12:23:31;;;;;;;4.60;4.07;;;19.40;52.10;;;;;;5008526;28;20981;-76
2023/04/09 12:26:00;;;;;;;5.20;4.70;;;19.50;51.80;;;;;;4992201;28;20690;-77
2023/04/09 12:28:26;;;;;;;4.37;3.97;;;19.50;50.90;;;;;;4993676;28;20581;-77
2023/04/09 12:30:52;;;;;;;3.87;3.47;;;19.50;50.80;;;;;;4975265;28;20700;-76
2023/04/09 12:33:19;;;;;;;4.80;4.00;;;19.40;51.20;;;;;;4992134;28;20585;-77
2023/04/09 12:35:45;;;;;;;8.80;4.57;;;19.40;50.80;;;;;;4991717;28;20582;-77
2023/04/09 12:38:11;;;;;;;4.60;4.10;;;19.40;51.40;;;;;;4993321;28;20570;-77
2023/04/09 12:40:37;;;;;;;7.60;5.43;;;19.40;51.50;;;;;;4999947;28;20685;-77
2023/04/09 12:43:03;;;;;;;11.10;9.10;;;19.30;50.50;;;;;;5011292;28;20725;-77
2023/04/09 12:45:30;;;;;;;6.03;5.43;;;19.20;49.90;;;;;;5011447;28;20624;-77
2023/04/09 12:47:56;;;;;;;5.00;4.37;;;18.90;49.30;;;;;;5012419;28;20565;-76